createdAt,value
2018-08-11T00:00:28.829Z,5.90
2018-08-11T00:02:31.003Z,5.50
2018-08-11T00:04:33.165Z,5.10
2018-08-11T00:06:35.333Z,5.80
2018-08-11T00:08:37.481Z,5.07
2018-08-11T00:10:39.645Z,4.87
2018-08-11T00:12:41.825Z,5.43
2018-08-11T00:14:44.089Z,5.30
2018-08-11T00:16:46.252Z,5.50
2018-08-11T00:18:48.422Z,5.33
2018-08-11T00:20:50.917Z,5.03
2018-08-11T00:22:53.085Z,4.87
2018-08-11T00:24:55.271Z,4.97
2018-08-11T00:26:57.470Z,5.20
2018-08-11T00:28:59.640Z,5.17
2018-08-11T00:31:01.836Z,4.90
2018-08-11T00:33:04.023Z,5.20
2018-08-11T00:35:07.967Z,5.30
2018-08-11T00:37:10.163Z,5.43
2018-08-11T00:39:12.705Z,5.63
2018-08-11T00:41:14.926Z,5.73
2018-08-11T00:43:17.281Z,5.03
2018-08-11T00:45:19.495Z,6.13
2018-08-11T00:47:21.689Z,5.13
2018-08-11T00:49:23.899Z,5.50
2018-08-11T00:51:26.126Z,4.90
2018-08-11T00:53:28.267Z,5.70
2018-08-11T00:55:30.499Z,5.07
2018-08-11T00:57:32.645Z,5.60
2018-08-11T00:59:34.808Z,5.70
2018-08-11T01:01:36.976Z,5.50
2018-08-11T01:03:39.120Z,5.67
2018-08-11T01:05:41.288Z,5.90
2018-08-11T01:07:44.005Z,6.00
2018-08-11T01:09:46.125Z,5.20
2018-08-11T01:11:48.287Z,5.43
2018-08-11T01:13:50.437Z,4.90
2018-08-11T01:15:52.600Z,5.30
2018-08-11T01:17:54.793Z,5.30
2018-08-11T01:19:56.927Z,5.13
2018-08-11T01:21:59.207Z,5.77
2018-08-11T01:24:01.752Z,5.33
2018-08-11T01:26:03.890Z,5.13
2018-08-11T01:28:06.045Z,5.93
2018-08-11T01:30:14.289Z,5.47
2018-08-11T01:32:16.413Z,5.57
2018-08-11T01:34:18.538Z,5.67
2018-08-11T01:36:21.066Z,5.40
2018-08-11T01:38:23.210Z,5.47
2018-08-11T01:40:25.346Z,5.40
2018-08-11T01:42:27.522Z,5.20
2018-08-11T01:44:29.683Z,5.50
2018-08-11T01:46:31.826Z,5.20
2018-08-11T01:48:34.046Z,5.30
2018-08-11T01:50:36.173Z,4.90
2018-08-11T01:52:39.358Z,5.53
2018-08-11T01:54:41.585Z,5.00
2018-08-11T01:56:43.753Z,5.80
2018-08-11T01:58:45.898Z,5.30
2018-08-11T02:00:48.091Z,4.60
2018-08-11T02:02:50.227Z,4.60
2018-08-11T02:04:52.462Z,4.63
2018-08-11T02:06:54.674Z,5.40
2018-08-11T02:08:56.821Z,5.40
2018-08-11T02:10:58.979Z,5.57
2018-08-11T02:13:01.110Z,5.60
2018-08-11T02:15:05.287Z,4.80
2018-08-11T02:17:14.278Z,5.20
2018-08-11T02:19:16.402Z,4.90
2018-08-11T02:21:18.519Z,4.70
2018-08-11T02:23:20.689Z,4.80
2018-08-11T02:25:22.846Z,4.73
2018-08-11T02:27:25.014Z,4.93
2018-08-11T02:29:27.277Z,4.43
2018-08-11T02:31:29.419Z,4.80
2018-08-11T02:33:31.585Z,3.90
2018-08-11T02:35:33.718Z,4.20
2018-08-11T02:37:35.874Z,4.23
2018-08-11T02:39:38.037Z,4.97
2018-08-11T02:41:40.197Z,4.20
2018-08-11T02:43:42.421Z,4.20
2018-08-11T02:45:44.579Z,4.40
2018-08-11T02:47:46.975Z,5.00
2018-08-11T02:49:49.223Z,4.30
2018-08-11T02:51:51.995Z,4.53
2018-08-11T02:53:54.141Z,4.10
2018-08-11T02:55:56.279Z,4.10
2018-08-11T02:57:58.390Z,4.73
2018-08-11T03:00:00.566Z,3.83
2018-08-11T03:02:02.739Z,4.40
2018-08-11T03:04:04.888Z,4.23
2018-08-11T03:06:07.027Z,4.73
2018-08-11T03:08:09.165Z,5.10
2018-08-11T03:10:11.473Z,5.43
2018-08-11T03:12:13.599Z,4.77
2018-08-11T03:14:15.850Z,4.57
2018-08-11T03:16:18.070Z,4.43
2018-08-11T03:18:20.230Z,4.20
2018-08-11T03:20:22.379Z,4.40
2018-08-11T03:22:24.493Z,4.43
2018-08-11T03:24:26.623Z,4.90
2018-08-11T03:26:28.796Z,5.13
2018-08-11T03:28:30.954Z,5.10
2018-08-11T03:30:33.114Z,5.13
2018-08-11T03:32:35.422Z,4.60
2018-08-11T03:34:37.545Z,5.00
2018-08-11T03:36:39.729Z,4.93
2018-08-11T03:38:41.861Z,5.10
2018-08-11T03:40:44.002Z,4.90
2018-08-11T03:42:46.130Z,5.17
2018-08-11T03:44:48.619Z,5.60
2018-08-11T03:46:50.766Z,5.30
2018-08-11T03:48:52.867Z,4.97
2018-08-11T03:50:55.091Z,5.43
2018-08-11T03:52:57.245Z,4.30
2018-08-11T03:54:59.369Z,5.10
2018-08-11T03:57:01.497Z,4.30
2018-08-11T03:59:03.739Z,4.50
2018-08-11T04:01:05.903Z,3.90
2018-08-11T04:03:08.030Z,4.30
2018-08-11T04:05:10.180Z,4.10
2018-08-11T04:07:12.299Z,3.90
2018-08-11T04:09:14.406Z,3.60
2018-08-11T04:11:16.505Z,3.60
2018-08-11T04:13:18.618Z,3.10
2018-08-11T04:15:20.811Z,3.00
2018-08-11T04:17:28.409Z,3.40
2018-08-11T04:19:30.605Z,3.30
2018-08-11T04:21:32.950Z,3.00
2018-08-11T04:23:35.114Z,3.60
2018-08-11T04:25:37.254Z,3.27
2018-08-11T04:27:39.465Z,3.40
2018-08-11T04:29:41.628Z,3.10
2018-08-11T04:31:43.742Z,2.80
2018-08-11T04:33:45.906Z,2.77
2018-08-11T04:35:48.054Z,2.80
2018-08-11T04:37:50.281Z,2.60
2018-08-11T04:39:52.825Z,2.50
2018-08-11T04:41:55.014Z,2.57
2018-08-11T04:43:57.098Z,2.67
2018-08-11T04:45:59.306Z,2.80
2018-08-11T04:48:01.453Z,2.73
2018-08-11T04:50:03.773Z,2.93
2018-08-11T04:52:05.926Z,2.90
2018-08-11T04:54:08.066Z,2.90
2018-08-11T04:56:10.223Z,2.80
2018-08-11T04:58:12.470Z,2.67
2018-08-11T05:00:14.609Z,2.77
2018-08-11T05:02:16.991Z,3.10
2018-08-11T05:04:19.180Z,2.73
2018-08-11T05:06:21.328Z,2.90
2018-08-11T05:08:23.483Z,2.93
2018-08-11T05:10:25.670Z,2.70
2018-08-11T05:12:27.837Z,2.60
2018-08-11T05:14:30.177Z,2.43
2018-08-11T05:16:32.333Z,2.50
2018-08-11T05:18:34.497Z,2.90
2018-08-11T05:20:36.663Z,2.77
2018-08-11T05:22:38.851Z,2.40
2018-08-11T05:24:41.010Z,2.80
2018-08-11T05:26:43.202Z,2.50
2018-08-11T05:28:45.403Z,2.67
2018-08-11T05:30:47.537Z,2.53
2018-08-11T05:32:49.687Z,2.40
2018-08-11T05:34:52.530Z,2.53
2018-08-11T05:36:54.694Z,2.33
2018-08-11T05:38:56.851Z,2.40
2018-08-11T05:40:59.015Z,2.23
2018-08-11T05:43:01.183Z,2.50
2018-08-11T05:45:03.399Z,2.10
2018-08-11T05:47:05.586Z,3.00
2018-08-11T05:49:08.158Z,2.40
2018-08-11T05:51:10.453Z,2.03
2018-08-11T05:53:12.620Z,2.47
2018-08-11T05:55:14.848Z,2.20
2018-08-11T05:57:16.999Z,2.60
2018-08-11T05:59:19.165Z,2.37
2018-08-11T06:01:21.305Z,2.40
2018-08-11T06:03:30.153Z,2.40
2018-08-11T06:05:32.321Z,2.13
2018-08-11T06:07:34.538Z,2.67
2018-08-11T06:09:36.801Z,2.50
2018-08-11T06:11:39.055Z,2.20
2018-08-11T06:13:41.217Z,2.00
2018-08-11T06:15:43.746Z,2.47
2018-08-11T06:17:45.901Z,2.13
2018-08-11T06:19:48.069Z,2.30
2018-08-11T06:21:50.266Z,2.13
2018-08-11T06:23:52.446Z,2.40
2018-08-11T06:25:54.672Z,2.23
2018-08-11T06:27:56.878Z,2.53
2018-08-11T06:29:59.057Z,2.33
2018-08-11T06:32:01.291Z,2.40
2018-08-11T06:34:03.578Z,2.30
2018-08-11T06:36:05.758Z,2.30
2018-08-11T06:38:07.915Z,2.40
2018-08-11T06:40:10.257Z,2.17
2018-08-11T06:42:12.791Z,2.40
2018-08-11T06:44:14.924Z,2.30
2018-08-11T06:46:17.234Z,2.60
2018-08-11T06:48:19.379Z,2.87
2018-08-11T06:50:21.541Z,2.67
2018-08-11T06:52:23.734Z,2.57
2018-08-11T06:54:25.877Z,2.80
2018-08-11T06:56:28.032Z,3.03
2018-08-11T06:58:30.203Z,3.00
2018-08-11T07:00:32.378Z,3.00
2018-08-11T07:02:34.519Z,3.37
2018-08-11T07:04:44.069Z,3.30
2018-08-11T07:06:46.313Z,3.37
2018-08-11T07:08:48.619Z,3.60
2018-08-11T07:10:50.756Z,3.30
2018-08-11T07:12:52.950Z,3.73
2018-08-11T07:14:55.093Z,3.40
2018-08-11T07:16:57.439Z,3.93
2018-08-11T07:18:59.590Z,4.10
2018-08-11T07:21:01.920Z,5.23
2018-08-11T07:23:04.078Z,4.83
2018-08-11T07:25:07.126Z,4.70
2018-08-11T07:27:09.404Z,5.23
2018-08-11T07:29:18.357Z,4.77
2018-08-11T07:31:20.531Z,5.67
2018-08-11T07:33:22.687Z,4.70
2018-08-11T07:35:24.810Z,5.00
2018-08-11T07:37:26.966Z,4.47
2018-08-11T07:39:29.115Z,5.63
2018-08-11T07:41:31.278Z,5.37
2018-08-11T07:43:33.642Z,5.43
2018-08-11T07:45:35.846Z,6.00
2018-08-11T07:47:38.043Z,6.00
2018-08-11T07:49:40.342Z,6.07
2018-08-11T07:51:42.494Z,5.67
2018-08-11T07:53:44.648Z,5.70
2018-08-11T07:55:46.803Z,6.10
2018-08-11T07:59:57.983Z,6.50
2018-08-11T08:02:00.248Z,6.63
2018-08-11T08:04:02.415Z,6.30
2018-08-11T08:06:04.557Z,6.87
2018-08-11T08:08:06.764Z,6.77
2018-08-11T08:10:08.861Z,6.43
2018-08-11T08:12:11.037Z,6.97
2018-08-11T08:14:13.145Z,7.63
2018-08-11T08:16:15.282Z,6.53
2018-08-11T08:18:17.453Z,6.50
2018-08-11T08:20:19.617Z,5.57
2018-08-11T08:22:21.833Z,5.97
2018-08-11T08:24:23.933Z,6.37
2018-08-11T08:26:26.261Z,7.03
2018-08-11T08:28:28.214Z,6.60
2018-08-11T08:30:30.421Z,6.40
2018-08-11T08:32:32.570Z,6.90
2018-08-11T08:34:34.697Z,6.97
2018-08-11T08:36:36.830Z,6.70
2018-08-11T08:38:39.034Z,6.07
2018-08-11T08:40:41.158Z,6.10
2018-08-11T08:42:43.302Z,6.40
2018-08-11T08:44:45.449Z,6.13
2018-08-11T08:46:47.622Z,6.00
2018-08-11T08:48:49.772Z,6.60
2018-08-11T08:50:51.898Z,6.90
2018-08-11T08:52:54.066Z,5.80
2018-08-11T08:54:56.246Z,6.37
2018-08-11T08:56:58.405Z,6.10
2018-08-11T08:59:00.579Z,6.50
2018-08-11T09:01:02.855Z,6.70
2018-08-11T09:03:05.037Z,5.80
2018-08-11T09:05:07.311Z,6.40
2018-08-11T09:07:09.431Z,6.10
2018-08-11T09:09:12.088Z,5.10
2018-08-11T09:11:14.244Z,5.20
2018-08-11T09:13:16.393Z,5.43
2018-08-11T09:15:18.526Z,5.63
2018-08-11T09:17:20.662Z,5.50
2018-08-11T09:19:22.864Z,4.90
2018-08-11T09:21:25.016Z,5.10
2018-08-11T09:23:27.170Z,4.90
2018-08-11T09:25:29.314Z,4.63
2018-08-11T09:27:31.456Z,4.60
2018-08-11T09:29:33.616Z,4.20
2018-08-11T09:31:35.784Z,4.63
2018-08-11T09:33:37.911Z,4.57
2018-08-11T09:35:40.063Z,3.90
2018-08-11T09:37:42.219Z,3.80
2018-08-11T09:39:44.351Z,3.03
2018-08-11T09:41:46.506Z,3.20
2018-08-11T09:43:48.670Z,2.93
2018-08-11T09:45:50.913Z,3.03
2018-08-11T09:47:53.014Z,3.00
2018-08-11T09:49:55.346Z,2.83
2018-08-11T09:51:57.529Z,4.07
2018-08-11T09:53:59.655Z,3.30
2018-08-11T09:56:01.888Z,3.60
2018-08-11T09:58:04.089Z,3.60
2018-08-11T10:00:06.985Z,3.93
2018-08-11T10:02:14.738Z,3.33
2018-08-11T10:04:16.876Z,4.00
2018-08-11T10:06:19.782Z,4.00
2018-08-11T10:08:21.959Z,3.47
2018-08-11T10:10:24.099Z,3.70
2018-08-11T10:12:26.246Z,3.30
2018-08-11T10:14:28.529Z,4.27
2018-08-11T10:18:39.653Z,3.97
2018-08-11T10:20:41.918Z,3.60
2018-08-11T10:22:44.059Z,3.63
2018-08-11T10:24:46.207Z,4.07
2018-08-11T10:26:48.451Z,3.60
2018-08-11T10:28:50.579Z,3.73
2018-08-11T10:30:52.713Z,3.30
2018-08-11T10:32:55.055Z,3.57
2018-08-11T10:34:57.157Z,3.17
2018-08-11T10:36:59.361Z,3.20
2018-08-11T10:39:02.289Z,3.30
2018-08-11T10:41:04.473Z,3.00
2018-08-11T10:43:06.669Z,3.33
2018-08-11T10:45:08.990Z,3.13
2018-08-11T10:47:11.243Z,2.57
2018-08-11T10:49:13.374Z,3.00
2018-08-11T10:51:15.825Z,3.00
2018-08-11T10:53:17.938Z,3.03
2018-08-11T10:55:22.025Z,2.40
2018-08-11T10:57:24.250Z,2.50
2018-08-11T10:59:26.466Z,2.60
2018-08-11T11:01:28.621Z,2.70
2018-08-11T11:03:30.958Z,2.57
2018-08-11T11:05:33.138Z,2.57
2018-08-11T11:07:35.343Z,2.63
2018-08-11T11:09:37.497Z,2.83
2018-08-11T11:11:39.682Z,2.70
2018-08-11T11:13:41.828Z,2.50
2018-08-11T11:15:43.948Z,2.70
2018-08-11T11:17:46.145Z,2.73
2018-08-11T11:19:48.466Z,2.50
2018-08-11T11:21:50.589Z,2.40
2018-08-11T11:23:52.738Z,2.70
2018-08-11T11:25:54.832Z,3.20
2018-08-11T11:27:57.162Z,2.33
2018-08-11T11:29:59.306Z,2.70
2018-08-11T11:32:01.516Z,2.50
2018-08-11T11:34:04.015Z,2.67
2018-08-11T11:36:06.196Z,2.80
2018-08-11T11:38:08.363Z,2.50
2018-08-11T11:40:10.562Z,2.70
2018-08-11T11:42:12.702Z,2.50
2018-08-11T11:44:14.829Z,2.57
2018-08-11T11:46:17.013Z,3.20
2018-08-11T11:48:19.202Z,3.40
2018-08-11T11:50:21.392Z,2.80
2018-08-11T11:52:23.568Z,2.50
2018-08-11T11:54:25.689Z,2.80
2018-08-11T11:56:27.905Z,2.60
2018-08-11T11:58:30.225Z,3.10
2018-08-11T12:00:32.370Z,2.80
2018-08-11T12:02:34.531Z,2.70
2018-08-11T12:04:36.781Z,3.17
2018-08-11T12:06:38.930Z,4.10
2018-08-11T12:08:41.089Z,3.33
2018-08-11T12:10:43.218Z,3.63
2018-08-11T12:12:45.395Z,2.90
2018-08-11T12:14:47.559Z,3.07
2018-08-11T12:16:49.751Z,2.60
2018-08-11T12:18:51.919Z,3.53
2018-08-11T12:20:54.141Z,3.57
2018-08-11T12:22:56.312Z,3.60
2018-08-11T12:24:58.521Z,3.60
2018-08-11T12:27:00.693Z,3.50
2018-08-11T12:29:02.900Z,5.00
2018-08-11T12:31:05.340Z,5.20
2018-08-11T12:33:07.494Z,3.70
2018-08-11T12:35:09.664Z,3.70
2018-08-11T12:37:11.834Z,4.10
2018-08-11T12:39:13.998Z,3.70
2018-08-11T12:41:16.177Z,7.40
2018-08-11T12:43:18.322Z,4.30
2018-08-11T12:45:20.490Z,2.93
2018-08-11T12:47:22.644Z,2.80
2018-08-11T12:49:24.767Z,3.33
2018-08-11T12:51:26.931Z,2.30
2018-08-11T12:53:29.083Z,2.70
2018-08-11T12:55:31.177Z,2.27
2018-08-11T12:57:33.321Z,3.07
2018-08-11T12:59:35.471Z,3.30
2018-08-11T13:01:37.704Z,3.00
2018-08-11T13:03:40.226Z,2.83
2018-08-11T13:05:42.390Z,2.83
2018-08-11T13:07:44.538Z,2.60
2018-08-11T13:09:46.704Z,2.40
2018-08-11T13:11:48.845Z,2.90
2018-08-11T13:13:50.974Z,2.53
2018-08-11T13:15:53.146Z,2.30
2018-08-11T13:17:55.306Z,2.50
2018-08-11T13:19:57.471Z,2.33
2018-08-11T13:21:59.654Z,2.33
2018-08-11T13:24:01.804Z,2.40
2018-08-11T13:26:03.925Z,2.50
2018-08-11T13:28:06.152Z,2.70
2018-08-11T13:30:08.314Z,3.00
2018-08-11T13:32:10.450Z,2.23
2018-08-11T13:34:12.767Z,3.33
2018-08-11T13:36:14.898Z,3.00
2018-08-11T13:38:18.001Z,2.03
2018-08-11T13:40:20.213Z,2.43
2018-08-11T13:42:22.374Z,2.17
2018-08-11T13:44:24.505Z,2.07
2018-08-11T13:46:26.626Z,3.03
2018-08-11T13:48:28.794Z,2.43
2018-08-11T13:50:30.949Z,2.60
2018-08-11T13:52:33.068Z,2.60
2018-08-11T13:54:35.171Z,2.70
2018-08-11T13:56:38.133Z,3.10
2018-08-11T13:58:40.313Z,3.10
2018-08-11T14:00:42.478Z,2.50
2018-08-11T14:02:44.666Z,2.37
2018-08-11T14:04:46.814Z,2.20
2018-08-11T14:06:48.994Z,2.33
2018-08-11T14:08:51.151Z,2.17
2018-08-11T14:10:53.290Z,2.23
2018-08-11T14:12:55.522Z,2.33
2018-08-11T14:14:58.056Z,2.30
2018-08-11T14:17:00.153Z,2.70
2018-08-11T14:19:02.323Z,2.70
2018-08-11T14:21:04.520Z,2.87
2018-08-11T14:23:06.691Z,3.30
2018-08-11T14:25:08.833Z,3.33
2018-08-11T14:27:11.094Z,2.93
2018-08-11T14:29:13.297Z,3.57
2018-08-11T14:31:15.514Z,2.90
2018-08-11T14:33:17.678Z,3.00
2018-08-11T14:35:19.838Z,2.80
2018-08-11T14:37:22.148Z,2.90
2018-08-11T14:39:24.435Z,2.93
2018-08-11T14:41:26.613Z,2.67
2018-08-11T14:43:28.805Z,2.50
2018-08-11T14:45:30.969Z,2.50
2018-08-11T14:47:33.118Z,2.50
2018-08-11T14:49:35.311Z,2.13
2018-08-11T14:51:37.466Z,2.20
2018-08-11T14:53:39.681Z,2.33
2018-08-11T14:55:41.824Z,2.60
2018-08-11T14:57:43.961Z,2.30
2018-08-11T14:59:46.160Z,3.20
2018-08-11T15:01:48.279Z,2.50
2018-08-11T15:03:50.437Z,2.50
2018-08-11T15:05:52.613Z,2.20
2018-08-11T15:07:54.798Z,2.40
2018-08-11T15:09:56.981Z,1.80
2018-08-11T15:11:59.090Z,1.80
2018-08-11T15:14:01.254Z,2.10
2018-08-11T15:16:03.879Z,2.33
2018-08-11T15:18:05.968Z,2.47
2018-08-11T15:20:08.668Z,2.27
2018-08-11T15:22:10.797Z,2.20
2018-08-11T15:24:12.889Z,2.47
2018-08-11T15:26:15.039Z,2.40
2018-08-11T15:28:17.189Z,2.17
2018-08-11T15:30:19.341Z,1.87
2018-08-11T15:32:21.498Z,2.50
2018-08-11T15:34:23.625Z,2.20
2018-08-11T15:36:25.753Z,2.40
2018-08-11T15:38:27.918Z,2.53
2018-08-11T15:40:30.042Z,2.67
2018-08-11T15:42:32.362Z,3.10
2018-08-11T15:44:34.471Z,2.50
2018-08-11T15:46:36.941Z,2.50
2018-08-11T15:48:39.096Z,2.30
2018-08-11T15:50:41.242Z,2.13
2018-08-11T15:52:43.435Z,2.13
2018-08-11T15:54:45.620Z,2.10
2018-08-11T15:56:47.770Z,2.07
2018-08-11T15:58:49.941Z,2.30
2018-08-11T16:00:52.331Z,2.47
2018-08-11T16:02:54.458Z,1.80
2018-08-11T16:04:56.610Z,2.13
2018-08-11T16:06:58.774Z,2.43
2018-08-11T16:09:00.913Z,2.27
2018-08-11T16:11:03.087Z,2.40
2018-08-11T16:13:05.218Z,4.40
2018-08-11T16:15:07.358Z,2.40
2018-08-11T16:17:09.519Z,2.20
2018-08-11T16:19:11.726Z,2.00
2018-08-11T16:21:13.859Z,2.47
2018-08-11T16:23:16.026Z,2.40
2018-08-11T16:25:18.198Z,2.50
2018-08-11T16:27:20.349Z,1.90
2018-08-11T16:29:22.543Z,3.17
2018-08-11T16:31:24.896Z,2.43
2018-08-11T16:33:27.067Z,2.90
2018-08-11T16:35:29.210Z,2.20
2018-08-11T16:37:31.353Z,2.77
2018-08-11T16:39:33.507Z,2.43
2018-08-11T16:41:36.074Z,4.33
2018-08-11T16:43:38.315Z,3.10
2018-08-11T16:45:40.468Z,2.70
2018-08-11T16:47:42.615Z,3.50
2018-08-11T16:49:44.742Z,2.97
2018-08-11T16:51:46.915Z,2.47
2018-08-11T16:53:49.129Z,2.37
2018-08-11T16:55:51.284Z,2.70
2018-08-11T16:57:53.439Z,3.00
2018-08-11T16:59:55.589Z,2.50
2018-08-11T17:01:57.736Z,2.73
2018-08-11T17:03:59.876Z,2.60
2018-08-11T17:06:01.994Z,2.20
2018-08-11T17:08:04.143Z,2.67
2018-08-11T17:10:07.281Z,3.00
2018-08-11T17:12:09.403Z,2.73
2018-08-11T17:14:11.531Z,2.40
2018-08-11T17:16:13.695Z,2.30
2018-08-11T17:18:15.847Z,2.80
2018-08-11T17:20:18.009Z,2.50
2018-08-11T17:22:20.290Z,2.40
2018-08-11T17:24:22.409Z,2.33
2018-08-11T17:26:24.613Z,2.27
2018-08-11T17:28:26.802Z,2.70
2018-08-11T17:30:28.938Z,2.73
2018-08-11T17:32:31.242Z,2.83
2018-08-11T17:34:33.279Z,2.40
2018-08-11T17:36:35.438Z,2.40
2018-08-11T17:38:37.648Z,2.33
2018-08-11T17:40:39.732Z,2.53
2018-08-11T17:42:41.841Z,2.27
2018-08-11T17:44:51.134Z,2.60
2018-08-11T17:46:53.289Z,2.40
2018-08-11T17:48:55.477Z,2.30
2018-08-11T17:50:57.639Z,2.30
2018-08-11T17:52:59.874Z,3.10
2018-08-11T17:55:02.034Z,2.30
2018-08-11T17:57:04.343Z,2.53
2018-08-11T17:59:06.503Z,2.60
2018-08-11T18:01:08.670Z,2.17
2018-08-11T18:03:10.978Z,2.37
2018-08-11T18:05:13.101Z,2.87
2018-08-11T18:07:15.271Z,3.33
2018-08-11T18:09:17.430Z,2.50
2018-08-11T18:11:19.567Z,3.03
2018-08-11T18:13:21.689Z,2.37
2018-08-11T18:15:24.137Z,2.23
2018-08-11T18:17:26.280Z,2.47
2018-08-11T18:19:28.468Z,2.17
2018-08-11T18:21:30.620Z,2.20
2018-08-11T18:23:32.778Z,2.10
2018-08-11T18:25:35.093Z,2.10
2018-08-11T18:27:37.232Z,2.13
2018-08-11T18:29:39.404Z,2.70
2018-08-11T18:31:41.558Z,2.30
2018-08-11T18:33:43.716Z,3.83
2018-08-11T18:35:45.890Z,3.00
2018-08-11T18:37:48.056Z,2.60
2018-08-11T18:39:50.194Z,2.30
2018-08-11T18:41:52.381Z,2.20
2018-08-11T18:43:54.532Z,2.03
2018-08-11T18:45:56.690Z,2.10
2018-08-11T18:47:58.841Z,2.40
2018-08-11T18:52:09.962Z,2.10
2018-08-11T18:54:12.311Z,2.50
2018-08-11T18:56:14.605Z,2.90
2018-08-11T18:58:16.767Z,2.70
2018-08-11T19:00:18.990Z,2.40
2018-08-11T19:02:21.270Z,2.83
2018-08-11T19:04:24.803Z,3.07
2018-08-11T19:06:27.485Z,2.97
2018-08-11T19:08:30.014Z,2.50
2018-08-11T19:10:32.310Z,2.40
2018-08-11T19:12:35.245Z,2.60
2018-08-11T19:14:37.497Z,2.80
2018-08-11T19:16:39.952Z,2.70
2018-08-11T19:18:42.385Z,2.70
2018-08-11T19:20:45.431Z,3.70
2018-08-11T19:22:47.678Z,2.60
2018-08-11T19:24:49.831Z,2.70
2018-08-11T19:26:52.033Z,2.63
2018-08-11T19:28:54.226Z,2.63
2018-08-11T19:30:56.390Z,2.83
2018-08-11T19:32:59.104Z,3.20
2018-08-11T19:35:01.488Z,2.80
2018-08-11T19:37:03.886Z,2.70
2018-08-11T19:39:07.149Z,2.83
2018-08-11T19:41:09.559Z,2.63
2018-08-11T19:43:11.799Z,3.10
2018-08-11T19:45:15.777Z,3.90
2018-08-11T19:47:18.250Z,2.80
2018-08-11T19:49:20.702Z,3.30
2018-08-11T19:51:22.942Z,2.83
2018-08-11T19:53:25.250Z,2.73
2018-08-11T19:55:27.459Z,3.30
2018-08-11T19:57:29.682Z,3.60
2018-08-11T19:59:32.096Z,3.03
2018-08-11T20:01:34.354Z,2.90
2018-08-11T20:03:37.486Z,3.20
2018-08-11T20:05:40.027Z,3.60
2018-08-11T20:07:42.293Z,3.27
2018-08-11T20:09:44.559Z,4.03
2018-08-11T20:11:46.822Z,3.13
2018-08-11T20:13:49.137Z,3.03
2018-08-11T20:15:51.387Z,3.37
2018-08-11T20:17:53.747Z,2.80
2018-08-11T20:19:55.988Z,2.97
2018-08-11T20:21:58.254Z,3.10
2018-08-11T20:24:00.439Z,2.90
2018-08-11T20:26:02.633Z,2.80
2018-08-11T20:28:04.953Z,2.90
2018-08-11T20:30:08.046Z,3.00
2018-08-11T20:32:11.678Z,2.70
2018-08-11T20:34:14.207Z,3.10
2018-08-11T20:36:16.442Z,3.37
2018-08-11T20:38:18.971Z,3.20
2018-08-11T20:40:21.143Z,3.43
2018-08-11T20:42:23.321Z,3.13
2018-08-11T20:44:25.488Z,3.87
2018-08-11T20:46:27.665Z,2.97
2018-08-11T20:48:29.857Z,3.00
2018-08-11T20:50:31.990Z,2.97
2018-08-11T20:52:34.553Z,2.67
2018-08-11T20:54:36.701Z,3.10
2018-08-11T20:56:38.877Z,2.83
2018-08-11T20:58:41.833Z,3.07
2018-08-11T21:00:44.038Z,2.90
2018-08-11T21:02:46.202Z,3.50
2018-08-11T21:04:48.341Z,3.00
2018-08-11T21:06:50.508Z,3.17
2018-08-11T21:08:52.714Z,2.57
2018-08-11T21:10:54.904Z,2.87
2018-08-11T21:12:57.051Z,3.50
2018-08-11T21:14:59.231Z,3.00
2018-08-11T21:17:01.402Z,3.03
2018-08-11T21:19:03.716Z,3.00
2018-08-11T21:21:05.898Z,3.73
2018-08-11T21:23:08.089Z,3.50
2018-08-11T21:25:10.682Z,3.10
2018-08-11T21:27:12.850Z,3.40
2018-08-11T21:29:15.009Z,2.80
2018-08-11T21:31:17.190Z,3.43
2018-08-11T21:33:19.389Z,3.37
2018-08-11T21:35:21.560Z,3.20
2018-08-11T21:37:23.747Z,3.00
2018-08-11T21:39:25.912Z,2.83
2018-08-11T21:41:28.097Z,2.93
2018-08-11T21:43:30.477Z,3.47
2018-08-11T21:46:35.903Z,2.93
2018-08-11T21:48:38.067Z,2.60
2018-08-11T21:50:40.319Z,3.00
2018-08-11T21:52:42.497Z,3.10
2018-08-11T21:54:44.637Z,3.10
2018-08-11T21:56:46.832Z,3.30
2018-08-11T21:58:49.016Z,3.80
2018-08-11T22:00:56.277Z,3.77
2018-08-11T22:02:58.948Z,3.53
2018-08-11T22:05:01.117Z,3.50
2018-08-11T22:07:04.918Z,3.87
2018-08-11T22:09:08.780Z,3.50
2018-08-11T22:11:11.022Z,3.30
2018-08-11T22:13:13.167Z,3.70
2018-08-11T22:15:17.705Z,3.30
2018-08-11T22:17:19.873Z,3.40
2018-08-11T22:19:22.090Z,3.07
2018-08-11T22:21:24.237Z,2.73
2018-08-11T22:23:26.449Z,3.23
2018-08-11T22:25:28.577Z,3.30
2018-08-11T22:27:30.750Z,3.20
2018-08-11T22:29:32.904Z,2.57
2018-08-11T22:31:35.069Z,3.03
2018-08-11T22:33:37.233Z,2.80
2018-08-11T22:35:39.445Z,3.40
2018-08-11T22:37:41.650Z,3.23
2018-08-11T22:39:43.804Z,3.13
2018-08-11T22:41:46.022Z,3.30
2018-08-11T22:43:48.216Z,3.23
2018-08-11T22:45:50.409Z,3.00
2018-08-11T22:47:52.599Z,3.17
2018-08-11T22:49:55.252Z,3.60
2018-08-11T22:51:57.415Z,3.20
2018-08-11T22:53:59.589Z,3.00
2018-08-11T22:56:01.758Z,3.63
2018-08-11T22:58:03.946Z,3.57
2018-08-11T23:00:07.773Z,3.60
2018-08-11T23:02:09.935Z,3.70
2018-08-11T23:04:12.158Z,3.87
2018-08-11T23:06:14.337Z,3.00
2018-08-11T23:08:16.521Z,3.50
2018-08-11T23:10:18.715Z,3.20
2018-08-11T23:12:21.008Z,3.30
2018-08-11T23:14:23.193Z,3.40
2018-08-11T23:16:25.346Z,3.50
2018-08-11T23:20:36.591Z,3.90
2018-08-11T23:22:38.808Z,3.53
2018-08-11T23:24:41.111Z,3.23
2018-08-11T23:26:43.300Z,4.20
2018-08-11T23:28:45.453Z,3.83
2018-08-11T23:30:47.646Z,3.80
2018-08-11T23:32:49.813Z,3.90
2018-08-11T23:34:51.999Z,3.87
2018-08-11T23:36:54.325Z,4.00
2018-08-11T23:38:56.491Z,3.43
2018-08-11T23:40:58.670Z,3.47
2018-08-11T23:43:00.857Z,3.70
2018-08-11T23:45:03.757Z,3.37
2018-08-11T23:47:06.073Z,3.97
2018-08-11T23:49:08.282Z,3.67
2018-08-11T23:51:10.479Z,3.67
2018-08-11T23:53:12.605Z,3.80
2018-08-11T23:55:14.947Z,3.87
2018-08-11T23:57:17.136Z,3.43
2018-08-11T23:59:19.308Z,4.13
